• Join FlightAware (Why Join?)
  • Login
  • US Flag 
09:07AM EDT


 

Airport Tracker/Info


-or-


 

Live Flight TrackerFlight Track Log ✈ KAP720 ✈ 09-May-2013 ✈ KOGS - KALB

Flight Track Log - Related Links

Times and Time Zones

All times are in EDT time to prevent confusion due to time zone crossing. See the KAP720 flight status page for this flight to view local times or setup timezone preferences in your user account.

Time Position Orientation Groundspeed Altitude Reporting Facility
EDT Latitude Longitude Course Direction KTS MPH feet Rate Location/Type
07:31AM 44.5589 -75.3158 68° East 160 184 3,500  Level Boston Center
07:32AM 44.5283 -75.2881 147° Southeast 155 178 4,000 600 Climbing Boston Center
07:33AM 44.4978 -75.2575 144° Southeast 149 171 4,700 600 Climbing Boston Center
07:34AM 44.4631 -75.2325 153° Southeast 144 166 5,200 540 Climbing Boston Center
07:35AM 44.4281 -75.2078 153° Southeast 137 158 5,800 600 Climbing Boston Center
07:36AM 44.7792 -75.1146 68° East  Level FlightAware Approximate
07:36AM 44.3975 -75.1831 150° Southeast 137 158 6,500  Level Boston Center
07:37AM 44.3647 -75.1525 146° Southeast 137 158 7,000 240 Climbing Boston Center
07:38AM 44.3303 -75.1189 145° Southeast 137 158 7,000  Level Boston Center
07:39AM 44.2994 -75.0944 150° Southeast 143 165 7,000  Level Boston Center
07:40AM 44.2525 -75.0544 149° Southeast 154 177 7,000  Level Boston Center
07:41AM 44.2136 -75.0181 146° Southeast 165 190 7,000  Level Boston Center
07:42AM 44.1789 -74.9875 148° Southeast 165 190 7,000  Level Boston Center
07:43AM 44.1381 -74.9569 152° Southeast 165 190 7,000  Level Boston Center
07:44AM 44.1011 -74.9236 147° Southeast 165 190 7,000  Level Boston Center
07:45AM 44.0664 -74.8933 148° Southeast 165 190 7,000  Level Boston Center
07:46AM 44.0294 -74.8600 147° Southeast 165 190 7,100  Climbing Boston Center
07:47AM 43.9928 -74.8297 149° Southeast 159 183 7,000 -60 Descending Boston Center
07:48AM 43.9536 -74.8019 153° Southeast 159 183 7,000 -60 Level Boston Center
07:49AM 43.9208 -74.7719 147° Southeast 152 175 6,900 -60 Descending Boston Center
07:50AM 43.8861 -74.7417 148° Southeast 152 175 6,900  Level Boston Center
07:51AM 43.8492 -74.7117 150° Southeast 152 175 6,900  Level Boston Center
07:52AM 43.8164 -74.6817 147° Southeast 146 168 6,900  Level Boston Center
07:53AM 43.7817 -74.6514 148° Southeast 146 168 6,900  Level Boston Center
07:54AM 43.7447 -74.6242 152° Southeast 146 168 6,900  Level Boston Center
07:55AM 43.7117 -74.5972 149° Southeast 146 168 7,000  Climbing Boston Center
07:56AM 43.6769 -74.5672 148° Southeast 146 168 7,000 -60 Level Boston Center
07:57AM 43.6400 -74.5372 150° Southeast 146 168 6,900 -60 Descending Boston Center
07:58AM 43.6050 -74.5044 146° Southeast 141 162 6,900  Level Boston Center
07:59AM 43.5703 -74.4775 151° Southeast 141 162 6,900  Level Boston Center
08:00AM 43.5331 -74.4478 150° Southeast 141 162 7,000  Climbing Boston Center
08:01AM 43.4983 -74.4150 146° Southeast 146 168 6,900 -60 Descending Boston Center
08:02AM 43.4633 -74.3881 151° Southeast 152 175 6,900 60 Level Boston Center
08:03AM 43.4428 -74.3731 152° Southeast 152 175 7,000 60 Climbing Boston Center
08:03AM 43.4264 -74.3583 147° Southeast 146 168 7,000 -120 Level Boston Center
08:04AM 43.4036 -74.3406 150° Southeast 154 177 6,900 -120 Descending Boston Center
08:04AM 43.3872 -74.3286 152° Southeast 158 182 6,900  Level Boston Center
08:05AM 43.3667 -74.3108 148° Southeast 156 180 6,900  Level Boston Center
08:05AM 43.3400 -74.2842 144° Southeast 158 182 6,900 60 Level Boston Center
08:06AM 43.3317 -74.2783 153° Southeast 154 177 7,000 60 Climbing Boston Center
08:06AM 43.3050 -74.2547 147° Southeast 158 182 7,000  Level Boston Center
08:07AM 43.2928 -74.2458 152° Southeast 155 178 7,000  Level Boston Center
08:07AM 43.2658 -74.2250 151° Southeast 158 182 7,000 -120 Level Boston Center
08:08AM 43.2556 -74.2161 148° Southeast 155 178 6,900  Descending Boston Center
08:08AM 43.2308 -74.1956 149° Southeast 158 182 7,000 60 Climbing Boston Center
08:09AM 43.2206 -74.1867 148° Southeast 155 178 7,000 -300 Level Boston Center
08:09AM 43.1919 -74.1631 149° Southeast 158 182 6,700 -540 Descending Boston Center
08:10AM 43.1753 -74.1483 147° Southeast 168 193 6,400 -600 Descending Boston Center
08:10AM 43.1506 -74.1306 152° Southeast 164 189 6,100 -540 Descending Boston Center
08:11AM 43.1342 -74.1158 147° Southeast 177 204 5,900 -540 Descending Boston Center
08:11AM 43.1075 -74.0953 151° Southeast 175 201 5,600 -600 Descending Boston Center
08:12AM 43.0889 -74.0833 155° Southeast 175 201 5,300 -600 Descending Boston Center
08:12AM 43.0661 -74.0600 143° Southeast 175 201 5,000 -540 Descending Boston Center
08:13AM 43.0497 -74.0453 147° Southeast 174 200 4,800 -420 Descending Boston Center
08:13AM 43.0272 -74.0250 147° Southeast 175 201 4,600 -540 Descending Boston Center
08:14AM 43.0086 -74.0103 150° Southeast 173 199 4,300 -720 Descending Boston Center
08:14AM 42.9858 -73.9928 151° Southeast 175 201 3,900 -600 Descending Boston Center
08:15AM 42.9631 -73.9778 154° Southeast 174 200 3,700 -540 Descending Boston Center
08:15AM 42.9447 -73.9575 141° Southeast 181 208 3,400 -540 Descending Boston Center
08:16AM 42.9303 -73.9344 131° Southeast 173 199 3,200 -420 Descending Boston Center
08:16AM 42.9139 -73.9142 138° Southeast 169 194 3,000 -540 Descending Boston Center
08:17AM 42.8975 -73.8911 134° Southeast 166 191 2,700 -660 Descending Boston Center
08:18AM 42.8669 -73.8508 136° Southeast 169 194 2,100 -540 Descending Boston Center
08:19AM 42.8297 -73.8131 143° Southeast 147 169 1,700 -600 Descending Boston Center
08:20AM 42.7922 -73.8067 173° South 121 139 900 -840 Descending Boston Center
08:22AM 42.7491 -73.8020 160° South  Level Estimated
08:29AM 42.7491 -73.8020 160° South  Level Estimated
08:30AM 42.7491 -73.8020 160° South  Level Estimated
08:31AM 42.7491 -73.8020 160° South  Level Estimated